Martindale, Pennsylvania
Current Conditions -  °F | °C
As of 3:53 AM on Sunday 26 Oct 2014 (Local Time) from KLNS Reporting Station
Clear Clear  
Wind Chill: 16°   Ceiling: Unl
Heat Index: 16°   Visibility: 10mi
Dew Point:   Wind: 18mph
Humidity: 41%   Direction: 310°NW
Pressure: 29.64"   Gusts: 26mph
Location:  40.15°N, 76.08°W
Report Text: KLNS 260753Z AUTO 31016G23KT 10SM CLR 16/02 A2964 RMK AO2 SLP035 T01560022
Loading
Personal Weather Stations






























Interactive Weather Map
Tropical Storm Tracking
New forecast layout! Learn more

10-Day Weather Forecast

Advertisements
Track Severe Weather on mobile